EBOS/OST METAR and TAF weather

Enter ICAO airport designator
Station Type Date Time Source
EBOS METAR 2019/10/21 05:50 UTC NOAA

EBOS 210550Z 06012KT 8000 -RADZ BKN006 BKN012 11/10 Q1011 TEMPO 3500 RADZ


Station Type Date Time Source
EBOS Decoded METAR 2019/10/21 05:50 UTC NOAA

Oostende Airport , Belgium (EBOS) 51-12N 002-52E 5M
Oct 21, 2019 - 01:50 AM EDT / 2019.10.21 0550 UTC
Wind: from the ENE (060 degrees) at 14 MPH (12 KT):0
Visibility: 4 mile(s):0
Sky conditions: mostly cloudy
Weather: light rain, drizzle
Temperature: 51 F (11 C)
Dew Point: 50 F (10 C)
Relative Humidity: 93%
Pressure (altimeter): 29.85 in. Hg (1011 hPa)
ob: EBOS 210550Z 06012KT 8000 -RADZ BKN006 BKN012 11/10 Q1011 TEMPO 3500 RADZ
cycle: 6

Station Type Date Time Source
EBOS TAF 2019/10/21 06:27 UTC NOAA

TAF EBOS 210520Z 2106/2212 09008KT 9999 BKN017 PROB40
TEMPO 2106/2109 BKN008
BECMG 2108/2110 15010KT PROB30
TEMPO 2120/2204 BKN007 PROB30
TEMPO 2200/2212 4000 SHRA
BECMG 2201/2203 21010KT
BECMG 2209/2211 35007KT

Example: see airport list